sensor_id;sensor_type;location;lat;lon;timestamp;P1;durP1;ratioP1;P2;durP2;ratioP2
1026;SDS011;502;48.746;9.214;2023-05-07T00:01:25;5.90;;;3.80;;
1026;SDS011;502;48.746;9.214;2023-05-07T00:03:53;3.93;;;3.47;;
1026;SDS011;502;48.746;9.214;2023-05-07T00:06:19;3.63;;;3.33;;
1026;SDS011;502;48.746;9.214;2023-05-07T00:08:46;4.37;;;3.87;;
1026;SDS011;502;48.746;9.214;2023-05-07T00:11:12;4.70;;;3.80;;
1026;SDS011;502;48.746;9.214;2023-05-07T00:13:39;3.63;;;3.33;;
1026;SDS011;502;48.746;9.214;2023-05-07T00:16:06;4.07;;;3.67;;
1026;SDS011;502;48.746;9.214;2023-05-07T00:18:32;4.80;;;3.50;;
1026;SDS011;502;48.746;9.214;2023-05-07T00:21:01;3.57;;;3.27;;
1026;SDS011;502;48.746;9.214;2023-05-07T00:23:27;3.40;;;3.10;;
1026;SDS011;502;48.746;9.214;2023-05-07T00:25:54;4.00;;;3.60;;
1026;SDS011;502;48.746;9.214;2023-05-07T00:28:20;3.73;;;3.30;;
1026;SDS011;502;48.746;9.214;2023-05-07T00:30:47;4.40;;;3.30;;
1026;SDS011;502;48.746;9.214;2023-05-07T00:33:13;5.97;;;3.50;;
1026;SDS011;502;48.746;9.214;2023-05-07T00:35:40;3.83;;;3.47;;
1026;SDS011;502;48.746;9.214;2023-05-07T00:38:07;4.13;;;3.73;;
1026;SDS011;502;48.746;9.214;2023-05-07T00:40:34;3.83;;;3.53;;
1026;SDS011;502;48.746;9.214;2023-05-07T00:43:00;3.40;;;3.10;;
1026;SDS011;502;48.746;9.214;2023-05-07T00:45:27;3.50;;;3.20;;
1026;SDS011;502;48.746;9.214;2023-05-07T00:47:55;3.70;;;2.97;;
1026;SDS011;502;48.746;9.214;2023-05-07T00:50:22;3.40;;;3.10;;
1026;SDS011;502;48.746;9.214;2023-05-07T00:52:48;3.30;;;3.00;;
1026;SDS011;502;48.746;9.214;2023-05-07T00:55:16;4.60;;;4.00;;
1026;SDS011;502;48.746;9.214;2023-05-07T00:57:43;3.50;;;3.10;;
1026;SDS011;502;48.746;9.214;2023-05-07T01:00:10;3.90;;;3.10;;
1026;SDS011;502;48.746;9.214;2023-05-07T01:02:38;3.20;;;3.00;;
1026;SDS011;502;48.746;9.214;2023-05-07T01:05:05;3.50;;;2.97;;
1026;SDS011;502;48.746;9.214;2023-05-07T01:07:34;3.83;;;3.53;;
1026;SDS011;502;48.746;9.214;2023-05-07T01:10:01;4.00;;;3.23;;
1026;SDS011;502;48.746;9.214;2023-05-07T01:12:29;4.40;;;3.00;;
1026;SDS011;502;48.746;9.214;2023-05-07T01:14:57;4.20;;;3.80;;
1026;SDS011;502;48.746;9.214;2023-05-07T01:17:23;4.20;;;3.13;;
1026;SDS011;502;48.746;9.214;2023-05-07T01:19:50;3.17;;;2.87;;
1026;SDS011;502;48.746;9.214;2023-05-07T01:22:23;4.67;;;3.40;;
1026;SDS011;502;48.746;9.214;2023-05-07T01:24:55;4.13;;;3.80;;
1026;SDS011;502;48.746;9.214;2023-05-07T01:27:21;3.70;;;3.40;;
1026;SDS011;502;48.746;9.214;2023-05-07T01:29:50;4.60;;;3.73;;
1026;SDS011;502;48.746;9.214;2023-05-07T01:32:17;3.90;;;3.50;;
1026;SDS011;502;48.746;9.214;2023-05-07T01:34:45;5.40;;;3.80;;
1026;SDS011;502;48.746;9.214;2023-05-07T01:37:14;4.40;;;4.00;;
1026;SDS011;502;48.746;9.214;2023-05-07T01:39:42;4.80;;;3.43;;
1026;SDS011;502;48.746;9.214;2023-05-07T01:42:09;3.90;;;3.50;;
1026;SDS011;502;48.746;9.214;2023-05-07T01:44:36;5.23;;;3.43;;
1026;SDS011;502;48.746;9.214;2023-05-07T01:47:03;3.33;;;3.03;;
1026;SDS011;502;48.746;9.214;2023-05-07T01:49:30;3.77;;;3.37;;
1026;SDS011;502;48.746;9.214;2023-05-07T01:51:57;4.10;;;3.70;;
1026;SDS011;502;48.746;9.214;2023-05-07T01:54:25;3.60;;;3.30;;
1026;SDS011;502;48.746;9.214;2023-05-07T01:56:57;3.40;;;3.00;;
1026;SDS011;502;48.746;9.214;2023-05-07T01:59:24;3.50;;;3.20;;
1026;SDS011;502;48.746;9.214;2023-05-07T02:01:50;3.37;;;3.07;;
1026;SDS011;502;48.746;9.214;2023-05-07T02:04:17;4.13;;;3.73;;
1026;SDS011;502;48.746;9.214;2023-05-07T02:06:44;4.00;;;2.97;;
1026;SDS011;502;48.746;9.214;2023-05-07T02:09:12;4.27;;;3.53;;
1026;SDS011;502;48.746;9.214;2023-05-07T02:11:42;4.10;;;3.70;;
1026;SDS011;502;48.746;9.214;2023-05-07T02:14:10;4.70;;;3.13;;
1026;SDS011;502;48.746;9.214;2023-05-07T02:16:37;3.40;;;3.10;;
1026;SDS011;502;48.746;9.214;2023-05-07T02:19:03;6.30;;;3.73;;
1026;SDS011;502;48.746;9.214;2023-05-07T02:21:30;4.27;;;3.53;;
1026;SDS011;502;48.746;9.214;2023-05-07T02:23:57;3.33;;;3.03;;
1026;SDS011;502;48.746;9.214;2023-05-07T02:26:23;4.03;;;3.63;;
1026;SDS011;502;48.746;9.214;2023-05-07T02:28:51;4.10;;;3.70;;
1026;SDS011;502;48.746;9.214;2023-05-07T02:31:19;5.33;;;3.67;;
1026;SDS011;502;48.746;9.214;2023-05-07T02:33:46;4.30;;;3.90;;
1026;SDS011;502;48.746;9.214;2023-05-07T02:36:13;3.70;;;3.40;;
1026;SDS011;502;48.746;9.214;2023-05-07T02:38:49;3.73;;;3.20;;
1026;SDS011;502;48.746;9.214;2023-05-07T02:41:16;3.90;;;3.50;;
1026;SDS011;502;48.746;9.214;2023-05-07T02:43:42;3.77;;;3.47;;
1026;SDS011;502;48.746;9.214;2023-05-07T02:46:09;4.13;;;3.73;;
1026;SDS011;502;48.746;9.214;2023-05-07T02:48:41;7.13;;;3.47;;
1026;SDS011;502;48.746;9.214;2023-05-07T02:51:08;4.00;;;3.40;;
1026;SDS011;502;48.746;9.214;2023-05-07T02:53:36;3.43;;;3.13;;
1026;SDS011;502;48.746;9.214;2023-05-07T02:56:03;4.37;;;3.97;;
1026;SDS011;502;48.746;9.214;2023-05-07T02:58:31;3.97;;;3.57;;
1026;SDS011;502;48.746;9.214;2023-05-07T03:00:59;3.90;;;3.60;;
1026;SDS011;502;48.746;9.214;2023-05-07T03:03:39;4.10;;;3.70;;
1026;SDS011;502;48.746;9.214;2023-05-07T03:06:07;4.20;;;3.47;;
1026;SDS011;502;48.746;9.214;2023-05-07T03:08:34;3.50;;;3.10;;
1026;SDS011;502;48.746;9.214;2023-05-07T03:11:01;4.33;;;3.93;;
1026;SDS011;502;48.746;9.214;2023-05-07T03:13:28;4.60;;;3.43;;
1026;SDS011;502;48.746;9.214;2023-05-07T03:15:54;4.10;;;3.63;;
1026;SDS011;502;48.746;9.214;2023-05-07T03:18:21;4.17;;;3.77;;
1026;SDS011;502;48.746;9.214;2023-05-07T03:20:48;3.40;;;3.00;;
1026;SDS011;502;48.746;9.214;2023-05-07T03:23:17;3.83;;;3.40;;
1026;SDS011;502;48.746;9.214;2023-05-07T03:25:43;4.13;;;3.73;;
1026;SDS011;502;48.746;9.214;2023-05-07T03:28:10;4.70;;;3.33;;
1026;SDS011;502;48.746;9.214;2023-05-07T03:30:43;3.67;;;3.30;;
1026;SDS011;502;48.746;9.214;2023-05-07T03:33:09;4.10;;;3.30;;
1026;SDS011;502;48.746;9.214;2023-05-07T03:35:37;3.80;;;3.47;;
1026;SDS011;502;48.746;9.214;2023-05-07T03:38:03;3.93;;;3.63;;
1026;SDS011;502;48.746;9.214;2023-05-07T03:40:34;3.90;;;3.50;;
1026;SDS011;502;48.746;9.214;2023-05-07T03:43:02;4.63;;;3.70;;
1026;SDS011;502;48.746;9.214;2023-05-07T03:45:31;3.17;;;2.90;;
1026;SDS011;502;48.746;9.214;2023-05-07T03:48:09;3.40;;;3.10;;
1026;SDS011;502;48.746;9.214;2023-05-07T03:50:37;4.37;;;3.53;;
1026;SDS011;502;48.746;9.214;2023-05-07T03:53:03;4.60;;;3.60;;
1026;SDS011;502;48.746;9.214;2023-05-07T03:55:34;3.67;;;3.20;;
1026;SDS011;502;48.746;9.214;2023-05-07T03:58:01;3.83;;;3.53;;
1026;SDS011;502;48.746;9.214;2023-05-07T04:00:28;5.90;;;3.70;;
1026;SDS011;502;48.746;9.214;2023-05-07T04:02:58;5.20;;;3.70;;
1026;SDS011;502;48.746;9.214;2023-05-07T04:05:28;3.90;;;3.60;;
1026;SDS011;502;48.746;9.214;2023-05-07T04:07:59;4.67;;;4.23;;
1026;SDS011;502;48.746;9.214;2023-05-07T04:10:35;5.90;;;4.00;;
1026;SDS011;502;48.746;9.214;2023-05-07T04:13:06;4.37;;;3.97;;
1026;SDS011;502;48.746;9.214;2023-05-07T04:15:34;4.40;;;3.97;;
1026;SDS011;502;48.746;9.214;2023-05-07T04:18:02;7.40;;;4.17;;
1026;SDS011;502;48.746;9.214;2023-05-07T04:20:29;3.90;;;3.50;;
1026;SDS011;502;48.746;9.214;2023-05-07T04:23:00;4.30;;;3.90;;
1026;SDS011;502;48.746;9.214;2023-05-07T04:25:28;4.50;;;3.90;;
1026;SDS011;502;48.746;9.214;2023-05-07T04:28:03;3.73;;;3.33;;
1026;SDS011;502;48.746;9.214;2023-05-07T04:30:31;5.10;;;3.70;;
1026;SDS011;502;48.746;9.214;2023-05-07T04:32:58;4.60;;;3.73;;
1026;SDS011;502;48.746;9.214;2023-05-07T04:35:27;4.07;;;3.70;;
1026;SDS011;502;48.746;9.214;2023-05-07T04:37:54;4.97;;;3.90;;
1026;SDS011;502;48.746;9.214;2023-05-07T04:40:20;6.10;;;4.20;;
1026;SDS011;502;48.746;9.214;2023-05-07T04:42:47;5.67;;;4.60;;
1026;SDS011;502;48.746;9.214;2023-05-07T04:45:15;4.07;;;3.67;;
1026;SDS011;502;48.746;9.214;2023-05-07T04:47:44;4.60;;;4.00;;
1026;SDS011;502;48.746;9.214;2023-05-07T04:50:10;5.97;;;4.43;;
1026;SDS011;502;48.746;9.214;2023-05-07T04:52:38;5.33;;;4.00;;
1026;SDS011;502;48.746;9.214;2023-05-07T04:55:05;4.40;;;4.00;;
1026;SDS011;502;48.746;9.214;2023-05-07T04:57:36;4.23;;;3.83;;
1026;SDS011;502;48.746;9.214;2023-05-07T05:00:05;5.07;;;4.67;;
1026;SDS011;502;48.746;9.214;2023-05-07T05:02:36;3.93;;;3.63;;
1026;SDS011;502;48.746;9.214;2023-05-07T05:05:03;4.70;;;4.10;;
1026;SDS011;502;48.746;9.214;2023-05-07T05:07:30;3.97;;;3.57;;
1026;SDS011;502;48.746;9.214;2023-05-07T05:09:57;6.60;;;4.50;;
1026;SDS011;502;48.746;9.214;2023-05-07T05:12:24;4.80;;;4.40;;
1026;SDS011;502;48.746;9.214;2023-05-07T05:14:50;5.80;;;4.37;;
1026;SDS011;502;48.746;9.214;2023-05-07T05:17:17;5.33;;;4.60;;
1026;SDS011;502;48.746;9.214;2023-05-07T05:19:45;5.07;;;4.30;;
1026;SDS011;502;48.746;9.214;2023-05-07T05:22:12;4.80;;;4.33;;
1026;SDS011;502;48.746;9.214;2023-05-07T05:24:39;6.03;;;4.80;;
1026;SDS011;502;48.746;9.214;2023-05-07T05:27:05;5.33;;;4.83;;
1026;SDS011;502;48.746;9.214;2023-05-07T05:29:32;4.93;;;4.43;;
1026;SDS011;502;48.746;9.214;2023-05-07T05:31:59;4.73;;;4.33;;
1026;SDS011;502;48.746;9.214;2023-05-07T05:34:28;5.07;;;4.57;;
1026;SDS011;502;48.746;9.214;2023-05-07T05:36:56;4.97;;;4.00;;
1026;SDS011;502;48.746;9.214;2023-05-07T05:39:23;4.77;;;4.27;;
1026;SDS011;502;48.746;9.214;2023-05-07T05:41:50;4.73;;;3.93;;
1026;SDS011;502;48.746;9.214;2023-05-07T05:44:16;4.90;;;4.40;;
1026;SDS011;502;48.746;9.214;2023-05-07T05:46:43;6.70;;;4.53;;
1026;SDS011;502;48.746;9.214;2023-05-07T05:49:10;4.50;;;4.10;;
1026;SDS011;502;48.746;9.214;2023-05-07T05:51:37;4.33;;;3.93;;
1026;SDS011;502;48.746;9.214;2023-05-07T05:54:05;4.27;;;3.47;;
1026;SDS011;502;48.746;9.214;2023-05-07T05:56:32;4.37;;;3.97;;
1026;SDS011;502;48.746;9.214;2023-05-07T05:58:58;4.07;;;3.67;;
1026;SDS011;502;48.746;9.214;2023-05-07T06:01:25;4.30;;;3.90;;
1026;SDS011;502;48.746;9.214;2023-05-07T06:03:55;4.23;;;3.67;;
1026;SDS011;502;48.746;9.214;2023-05-07T06:06:22;5.30;;;4.57;;
1026;SDS011;502;48.746;9.214;2023-05-07T06:08:48;4.00;;;3.60;;
1026;SDS011;502;48.746;9.214;2023-05-07T06:11:21;4.30;;;3.90;;
1026;SDS011;502;48.746;9.214;2023-05-07T06:13:48;5.33;;;4.10;;
1026;SDS011;502;48.746;9.214;2023-05-07T06:16:15;5.10;;;4.67;;
1026;SDS011;502;48.746;9.214;2023-05-07T06:18:42;5.30;;;4.80;;
1026;SDS011;502;48.746;9.214;2023-05-07T06:21:13;4.60;;;4.00;;
1026;SDS011;502;48.746;9.214;2023-05-07T06:23:39;5.30;;;4.60;;
1026;SDS011;502;48.746;9.214;2023-05-07T06:26:06;8.77;;;4.47;;
1026;SDS011;502;48.746;9.214;2023-05-07T06:28:43;5.90;;;5.03;;
1026;SDS011;502;48.746;9.214;2023-05-07T06:31:12;5.23;;;4.83;;
1026;SDS011;502;48.746;9.214;2023-05-07T06:33:42;5.43;;;4.93;;
1026;SDS011;502;48.746;9.214;2023-05-07T06:36:10;5.33;;;4.83;;
1026;SDS011;502;48.746;9.214;2023-05-07T06:38:38;5.20;;;4.80;;
1026;SDS011;502;48.746;9.214;2023-05-07T06:41:05;5.10;;;4.60;;
1026;SDS011;502;48.746;9.214;2023-05-07T06:43:32;5.67;;;5.07;;
1026;SDS011;502;48.746;9.214;2023-05-07T06:46:18;7.70;;;5.00;;
1026;SDS011;502;48.746;9.214;2023-05-07T06:48:46;5.13;;;4.73;;
1026;SDS011;502;48.746;9.214;2023-05-07T06:51:13;5.43;;;4.93;;
1026;SDS011;502;48.746;9.214;2023-05-07T06:53:39;5.70;;;5.07;;
1026;SDS011;502;48.746;9.214;2023-05-07T06:56:09;5.90;;;5.40;;
1026;SDS011;502;48.746;9.214;2023-05-07T06:58:37;5.23;;;4.73;;
1026;SDS011;502;48.746;9.214;2023-05-07T07:01:05;5.40;;;4.90;;
1026;SDS011;502;48.746;9.214;2023-05-07T07:03:33;5.53;;;5.00;;
1026;SDS011;502;48.746;9.214;2023-05-07T07:06:00;5.63;;;5.13;;
1026;SDS011;502;48.746;9.214;2023-05-07T07:08:31;5.80;;;5.30;;
1026;SDS011;502;48.746;9.214;2023-05-07T07:10:58;5.63;;;4.97;;
1026;SDS011;502;48.746;9.214;2023-05-07T07:13:24;5.43;;;4.93;;
1026;SDS011;502;48.746;9.214;2023-05-07T07:15:51;5.17;;;4.73;;
1026;SDS011;502;48.746;9.214;2023-05-07T07:18:18;5.83;;;4.80;;
1026;SDS011;502;48.746;9.214;2023-05-07T07:20:48;5.10;;;4.57;;
1026;SDS011;502;48.746;9.214;2023-05-07T07:23:15;6.07;;;5.10;;
1026;SDS011;502;48.746;9.214;2023-05-07T07:25:41;5.47;;;4.93;;
1026;SDS011;502;48.746;9.214;2023-05-07T07:28:09;5.50;;;5.00;;
1026;SDS011;502;48.746;9.214;2023-05-07T07:30:36;5.63;;;5.13;;
1026;SDS011;502;48.746;9.214;2023-05-07T07:33:03;5.13;;;4.67;;
1026;SDS011;502;48.746;9.214;2023-05-07T07:35:34;5.47;;;4.97;;
1026;SDS011;502;48.746;9.214;2023-05-07T07:38:04;5.57;;;5.07;;
1026;SDS011;502;48.746;9.214;2023-05-07T07:40:30;5.97;;;5.27;;
1026;SDS011;502;48.746;9.214;2023-05-07T07:42:57;5.53;;;5.03;;
1026;SDS011;502;48.746;9.214;2023-05-07T07:45:26;6.07;;;5.57;;
1026;SDS011;502;48.746;9.214;2023-05-07T07:47:53;6.03;;;5.43;;
1026;SDS011;502;48.746;9.214;2023-05-07T07:50:20;6.40;;;5.80;;
1026;SDS011;502;48.746;9.214;2023-05-07T07:52:46;6.27;;;5.70;;
1026;SDS011;502;48.746;9.214;2023-05-07T07:55:19;6.17;;;5.67;;
1026;SDS011;502;48.746;9.214;2023-05-07T07:57:49;6.50;;;5.00;;
1026;SDS011;502;48.746;9.214;2023-05-07T08:00:16;6.40;;;5.80;;
1026;SDS011;502;48.746;9.214;2023-05-07T08:02:42;5.93;;;5.33;;
1026;SDS011;502;48.746;9.214;2023-05-07T08:05:15;5.93;;;5.33;;
1026;SDS011;502;48.746;9.214;2023-05-07T08:07:43;5.33;;;4.83;;
1026;SDS011;502;48.746;9.214;2023-05-07T08:10:11;5.87;;;5.30;;
1026;SDS011;502;48.746;9.214;2023-05-07T08:12:39;6.07;;;5.50;;
1026;SDS011;502;48.746;9.214;2023-05-07T08:15:06;5.97;;;5.40;;
1026;SDS011;502;48.746;9.214;2023-05-07T08:17:34;5.63;;;5.13;;
1026;SDS011;502;48.746;9.214;2023-05-07T08:20:01;4.87;;;4.47;;
1026;SDS011;502;48.746;9.214;2023-05-07T08:22:28;5.47;;;4.67;;
1026;SDS011;502;48.746;9.214;2023-05-07T08:24:55;5.83;;;5.33;;
1026;SDS011;502;48.746;9.214;2023-05-07T08:27:22;5.43;;;4.93;;
1026;SDS011;502;48.746;9.214;2023-05-07T08:29:50;5.47;;;4.97;;
1026;SDS011;502;48.746;9.214;2023-05-07T08:32:18;5.93;;;5.40;;
1026;SDS011;502;48.746;9.214;2023-05-07T08:34:45;4.90;;;4.40;;
1026;SDS011;502;48.746;9.214;2023-05-07T08:37:12;5.27;;;4.80;;
1026;SDS011;502;48.746;9.214;2023-05-07T08:39:39;7.10;;;5.53;;
1026;SDS011;502;48.746;9.214;2023-05-07T08:42:12;6.07;;;5.57;;
1026;SDS011;502;48.746;9.214;2023-05-07T08:44:39;6.10;;;5.50;;
1026;SDS011;502;48.746;9.214;2023-05-07T08:47:07;6.50;;;5.90;;
1026;SDS011;502;48.746;9.214;2023-05-07T08:49:35;6.67;;;6.07;;
1026;SDS011;502;48.746;9.214;2023-05-07T08:54:45;5.67;;;5.17;;
1026;SDS011;502;48.746;9.214;2023-05-07T08:57:12;5.73;;;5.23;;
1026;SDS011;502;48.746;9.214;2023-05-07T08:59:39;6.00;;;5.50;;
1026;SDS011;502;48.746;9.214;2023-05-07T09:02:09;6.03;;;5.43;;
1026;SDS011;502;48.746;9.214;2023-05-07T09:04:36;5.03;;;4.63;;
1026;SDS011;502;48.746;9.214;2023-05-07T09:07:03;5.47;;;4.93;;
1026;SDS011;502;48.746;9.214;2023-05-07T09:09:33;5.23;;;4.73;;
1026;SDS011;502;48.746;9.214;2023-05-07T09:12:02;4.60;;;4.20;;
1026;SDS011;502;48.746;9.214;2023-05-07T09:14:31;4.60;;;4.20;;
1026;SDS011;502;48.746;9.214;2023-05-07T09:16:59;4.70;;;4.20;;
1026;SDS011;502;48.746;9.214;2023-05-07T09:19:27;5.73;;;4.40;;
1026;SDS011;502;48.746;9.214;2023-05-07T09:22:00;5.30;;;4.80;;
1026;SDS011;502;48.746;9.214;2023-05-07T09:24:30;4.20;;;3.90;;
1026;SDS011;502;48.746;9.214;2023-05-07T09:27:01;4.10;;;3.70;;
1026;SDS011;502;48.746;9.214;2023-05-07T09:29:29;4.77;;;4.37;;
1026;SDS011;502;48.746;9.214;2023-05-07T09:32:01;3.97;;;3.57;;
1026;SDS011;502;48.746;9.214;2023-05-07T09:34:29;9.70;;;7.50;;
1026;SDS011;502;48.746;9.214;2023-05-07T09:36:57;4.80;;;4.30;;
1026;SDS011;502;48.746;9.214;2023-05-07T09:39:25;4.17;;;3.87;;
1026;SDS011;502;48.746;9.214;2023-05-07T09:41:52;4.90;;;4.40;;
1026;SDS011;502;48.746;9.214;2023-05-07T09:44:31;4.70;;;4.20;;
1026;SDS011;502;48.746;9.214;2023-05-07T09:46:57;6.30;;;4.30;;
1026;SDS011;502;48.746;9.214;2023-05-07T09:49:35;5.37;;;4.87;;
1026;SDS011;502;48.746;9.214;2023-05-07T09:52:05;4.67;;;4.27;;
1026;SDS011;502;48.746;9.214;2023-05-07T09:54:35;5.07;;;4.67;;
1026;SDS011;502;48.746;9.214;2023-05-07T09:57:05;5.30;;;4.27;;
1026;SDS011;502;48.746;9.214;2023-05-07T09:59:33;5.73;;;5.23;;
1026;SDS011;502;48.746;9.214;2023-05-07T10:02:04;4.60;;;4.20;;
1026;SDS011;502;48.746;9.214;2023-05-07T10:04:36;4.97;;;4.47;;
1026;SDS011;502;48.746;9.214;2023-05-07T10:07:04;4.27;;;3.90;;
1026;SDS011;502;48.746;9.214;2023-05-07T10:09:31;4.50;;;4.10;;
1026;SDS011;502;48.746;9.214;2023-05-07T10:11:58;4.57;;;4.20;;
1026;SDS011;502;48.746;9.214;2023-05-07T10:14:25;4.60;;;4.20;;
1026;SDS011;502;48.746;9.214;2023-05-07T10:16:54;4.60;;;4.07;;
1026;SDS011;502;48.746;9.214;2023-05-07T10:19:21;4.90;;;4.47;;
1026;SDS011;502;48.746;9.214;2023-05-07T10:21:54;4.27;;;3.87;;
1026;SDS011;502;48.746;9.214;2023-05-07T10:24:25;5.40;;;4.90;;
1026;SDS011;502;48.746;9.214;2023-05-07T10:26:53;4.97;;;3.90;;
1026;SDS011;502;48.746;9.214;2023-05-07T10:29:23;5.70;;;5.20;;
1026;SDS011;502;48.746;9.214;2023-05-07T10:31:56;5.37;;;4.70;;
1026;SDS011;502;48.746;9.214;2023-05-07T10:34:28;4.17;;;3.80;;
1026;SDS011;502;48.746;9.214;2023-05-07T10:36:59;4.63;;;4.03;;
1026;SDS011;502;48.746;9.214;2023-05-07T10:39:27;4.77;;;3.77;;
1026;SDS011;502;48.746;9.214;2023-05-07T10:41:54;4.40;;;4.10;;
1026;SDS011;502;48.746;9.214;2023-05-07T10:44:25;4.30;;;3.93;;
1026;SDS011;502;48.746;9.214;2023-05-07T10:47:08;5.93;;;4.50;;
1026;SDS011;502;48.746;9.214;2023-05-07T10:50:19;5.50;;;4.73;;
1026;SDS011;502;48.746;9.214;2023-05-07T11:02:14;4.83;;;4.43;;
1026;SDS011;502;48.746;9.214;2023-05-07T11:04:49;6.93;;;4.43;;
1026;SDS011;502;48.746;9.214;2023-05-07T11:07:48;3.87;;;3.57;;
1026;SDS011;502;48.746;9.214;2023-05-07T11:10:20;3.93;;;3.63;;
1026;SDS011;502;48.746;9.214;2023-05-07T11:12:54;4.30;;;3.57;;
1026;SDS011;502;48.746;9.214;2023-05-07T11:15:34;3.90;;;3.60;;
1026;SDS011;502;48.746;9.214;2023-05-07T11:18:17;5.33;;;3.37;;
1026;SDS011;502;48.746;9.214;2023-05-07T11:20:46;4.07;;;3.40;;
1026;SDS011;502;48.746;9.214;2023-05-07T11:23:58;3.47;;;3.10;;
1026;SDS011;502;48.746;9.214;2023-05-07T11:26:42;4.30;;;3.53;;
1026;SDS011;502;48.746;9.214;2023-05-07T11:29:14;3.83;;;3.53;;
1026;SDS011;502;48.746;9.214;2023-05-07T11:31:42;3.20;;;2.90;;
1026;SDS011;502;48.746;9.214;2023-05-07T11:34:09;4.00;;;3.60;;
1026;SDS011;502;48.746;9.214;2023-05-07T11:36:40;3.50;;;3.07;;
1026;SDS011;502;48.746;9.214;2023-05-07T11:39:24;4.37;;;3.60;;
1026;SDS011;502;48.746;9.214;2023-05-07T11:41:54;3.80;;;3.43;;
1026;SDS011;502;48.746;9.214;2023-05-07T11:44:20;4.90;;;4.20;;
1026;SDS011;502;48.746;9.214;2023-05-07T11:46:47;4.30;;;3.90;;
1026;SDS011;502;48.746;9.214;2023-05-07T11:49:14;3.87;;;3.57;;
1026;SDS011;502;48.746;9.214;2023-05-07T11:51:41;3.80;;;3.40;;
1026;SDS011;502;48.746;9.214;2023-05-07T11:54:08;4.77;;;4.37;;
1026;SDS011;502;48.746;9.214;2023-05-07T11:56:37;4.00;;;3.60;;
1026;SDS011;502;48.746;9.214;2023-05-07T11:59:04;3.63;;;3.33;;
1026;SDS011;502;48.746;9.214;2023-05-07T12:01:31;4.17;;;3.77;;
1026;SDS011;502;48.746;9.214;2023-05-07T12:03:58;3.83;;;3.53;;
1026;SDS011;502;48.746;9.214;2023-05-07T12:06:24;3.97;;;3.67;;
1026;SDS011;502;48.746;9.214;2023-05-07T12:08:52;3.90;;;3.60;;
1026;SDS011;502;48.746;9.214;2023-05-07T12:11:21;3.83;;;3.53;;
1026;SDS011;502;48.746;9.214;2023-05-07T12:13:50;4.00;;;3.70;;
1026;SDS011;502;48.746;9.214;2023-05-07T12:16:17;3.77;;;3.47;;
1026;SDS011;502;48.746;9.214;2023-05-07T12:18:44;3.70;;;3.40;;
1026;SDS011;502;48.746;9.214;2023-05-07T12:21:11;3.20;;;2.93;;
1026;SDS011;502;48.746;9.214;2023-05-07T12:23:37;3.63;;;3.33;;
1026;SDS011;502;48.746;9.214;2023-05-07T12:26:04;4.00;;;3.67;;
1026;SDS011;502;48.746;9.214;2023-05-07T12:28:35;3.97;;;3.57;;
1026;SDS011;502;48.746;9.214;2023-05-07T12:31:05;4.13;;;3.73;;
1026;SDS011;502;48.746;9.214;2023-05-07T12:33:32;3.73;;;3.43;;
1026;SDS011;502;48.746;9.214;2023-05-07T12:35:58;3.60;;;3.27;;
1026;SDS011;502;48.746;9.214;2023-05-07T12:38:33;2.53;;;2.33;;
1026;SDS011;502;48.746;9.214;2023-05-07T12:41:01;3.03;;;2.80;;
1026;SDS011;502;48.746;9.214;2023-05-07T12:43:28;4.00;;;3.60;;
1026;SDS011;502;48.746;9.214;2023-05-07T12:45:56;4.20;;;3.80;;
1026;SDS011;502;48.746;9.214;2023-05-07T12:48:24;5.30;;;3.00;;
1026;SDS011;502;48.746;9.214;2023-05-07T12:50:52;10.83;;;9.73;;
1026;SDS011;502;48.746;9.214;2023-05-07T12:53:20;2.73;;;2.30;;
1026;SDS011;502;48.746;9.214;2023-05-07T12:55:48;2.57;;;1.93;;
1026;SDS011;502;48.746;9.214;2023-05-07T12:58:15;2.40;;;1.53;;
1026;SDS011;502;48.746;9.214;2023-05-07T13:00:43;3.60;;;2.40;;
1026;SDS011;502;48.746;9.214;2023-05-07T13:03:10;1.70;;;1.50;;
1026;SDS011;502;48.746;9.214;2023-05-07T13:05:39;3.03;;;1.13;;
1026;SDS011;502;48.746;9.214;2023-05-07T13:08:06;6.83;;;3.00;;
1026;SDS011;502;48.746;9.214;2023-05-07T13:10:35;7.13;;;1.77;;
1026;SDS011;502;48.746;9.214;2023-05-07T13:13:01;3.80;;;1.97;;
1026;SDS011;502;48.746;9.214;2023-05-07T13:15:29;3.10;;;2.07;;
1026;SDS011;502;48.746;9.214;2023-05-07T13:17:55;5.00;;;2.73;;
1026;SDS011;502;48.746;9.214;2023-05-07T13:20:22;6.83;;;3.17;;
1026;SDS011;502;48.746;9.214;2023-05-07T13:22:50;4.30;;;3.30;;
1026;SDS011;502;48.746;9.214;2023-05-07T13:25:17;4.27;;;3.40;;
1026;SDS011;502;48.746;9.214;2023-05-07T13:27:44;4.10;;;3.40;;
1026;SDS011;502;48.746;9.214;2023-05-07T13:30:11;3.27;;;2.87;;
1026;SDS011;502;48.746;9.214;2023-05-07T13:32:38;4.07;;;2.27;;
1026;SDS011;502;48.746;9.214;2023-05-07T13:35:05;2.93;;;2.63;;
1026;SDS011;502;48.746;9.214;2023-05-07T13:37:33;3.03;;;2.40;;
1026;SDS011;502;48.746;9.214;2023-05-07T13:40:02;4.13;;;3.40;;
1026;SDS011;502;48.746;9.214;2023-05-07T13:42:29;6.87;;;2.13;;
1026;SDS011;502;48.746;9.214;2023-05-07T13:44:56;3.00;;;2.43;;
1026;SDS011;502;48.746;9.214;2023-05-07T13:47:23;1.70;;;1.50;;
1026;SDS011;502;48.746;9.214;2023-05-07T13:49:49;3.60;;;1.90;;
1026;SDS011;502;48.746;9.214;2023-05-07T13:52:16;2.10;;;1.83;;
1026;SDS011;502;48.746;9.214;2023-05-07T13:54:43;2.50;;;2.10;;
1026;SDS011;502;48.746;9.214;2023-05-07T13:57:11;2.40;;;2.00;;
1026;SDS011;502;48.746;9.214;2023-05-07T13:59:37;3.43;;;2.23;;
1026;SDS011;502;48.746;9.214;2023-05-07T14:02:04;1.80;;;1.60;;
1026;SDS011;502;48.746;9.214;2023-05-07T14:04:30;3.20;;;2.30;;
1026;SDS011;502;48.746;9.214;2023-05-07T14:06:59;3.90;;;2.67;;
1026;SDS011;502;48.746;9.214;2023-05-07T14:09:25;3.53;;;2.50;;
1026;SDS011;502;48.746;9.214;2023-05-07T14:11:52;3.37;;;2.60;;
1026;SDS011;502;48.746;9.214;2023-05-07T14:14:20;5.67;;;3.00;;
1026;SDS011;502;48.746;9.214;2023-05-07T14:16:47;4.40;;;3.30;;
1026;SDS011;502;48.746;9.214;2023-05-07T14:19:13;3.20;;;2.90;;
1026;SDS011;502;48.746;9.214;2023-05-07T14:21:43;4.60;;;2.90;;
1026;SDS011;502;48.746;9.214;2023-05-07T14:24:09;5.27;;;3.10;;
1026;SDS011;502;48.746;9.214;2023-05-07T14:26:36;2.97;;;2.67;;
1026;SDS011;502;48.746;9.214;2023-05-07T14:29:03;4.67;;;3.20;;
1026;SDS011;502;48.746;9.214;2023-05-07T14:31:31;3.33;;;2.93;;
1026;SDS011;502;48.746;9.214;2023-05-07T14:33:58;4.63;;;3.60;;
1026;SDS011;502;48.746;9.214;2023-05-07T14:36:25;3.77;;;3.30;;
1026;SDS011;502;48.746;9.214;2023-05-07T14:38:52;3.47;;;3.17;;
1026;SDS011;502;48.746;9.214;2023-05-07T14:41:19;4.63;;;4.13;;
1026;SDS011;502;48.746;9.214;2023-05-07T14:43:46;3.90;;;3.03;;
1026;SDS011;502;48.746;9.214;2023-05-07T14:46:15;3.10;;;2.80;;
1026;SDS011;502;48.746;9.214;2023-05-07T14:48:44;3.77;;;3.40;;
1026;SDS011;502;48.746;9.214;2023-05-07T14:51:11;3.40;;;3.10;;
1026;SDS011;502;48.746;9.214;2023-05-07T14:53:37;5.10;;;3.40;;
1026;SDS011;502;48.746;9.214;2023-05-07T14:56:04;3.30;;;2.93;;
1026;SDS011;502;48.746;9.214;2023-05-07T14:58:31;3.47;;;2.90;;
1026;SDS011;502;48.746;9.214;2023-05-07T15:00:58;6.33;;;3.30;;
1026;SDS011;502;48.746;9.214;2023-05-07T15:03:25;4.20;;;3.40;;
1026;SDS011;502;48.746;9.214;2023-05-07T15:05:52;3.67;;;3.10;;
1026;SDS011;502;48.746;9.214;2023-05-07T15:08:19;4.40;;;3.10;;
1026;SDS011;502;48.746;9.214;2023-05-07T15:10:46;6.97;;;3.23;;
1026;SDS011;502;48.746;9.214;2023-05-07T15:13:12;5.93;;;2.90;;
1026;SDS011;502;48.746;9.214;2023-05-07T15:15:39;3.10;;;2.80;;
1026;SDS011;502;48.746;9.214;2023-05-07T15:18:05;4.00;;;3.57;;
1026;SDS011;502;48.746;9.214;2023-05-07T15:20:32;2.37;;;2.10;;
1026;SDS011;502;48.746;9.214;2023-05-07T15:23:00;3.07;;;2.77;;
1026;SDS011;502;48.746;9.214;2023-05-07T15:25:28;4.40;;;2.30;;
1026;SDS011;502;48.746;9.214;2023-05-07T15:27:56;2.70;;;2.50;;
1026;SDS011;502;48.746;9.214;2023-05-07T15:30:22;3.03;;;2.60;;
1026;SDS011;502;48.746;9.214;2023-05-07T15:32:49;3.90;;;2.73;;
1026;SDS011;502;48.746;9.214;2023-05-07T15:35:16;3.37;;;3.00;;
1026;SDS011;502;48.746;9.214;2023-05-07T15:37:46;2.80;;;2.40;;
1026;SDS011;502;48.746;9.214;2023-05-07T15:40:16;3.70;;;3.27;;
1026;SDS011;502;48.746;9.214;2023-05-07T15:42:45;2.30;;;2.10;;
1026;SDS011;502;48.746;9.214;2023-05-07T15:45:12;3.40;;;3.10;;
1026;SDS011;502;48.746;9.214;2023-05-07T15:47:38;4.30;;;3.90;;
1026;SDS011;502;48.746;9.214;2023-05-07T15:50:05;5.50;;;4.90;;